Allen, Maryland
Current Conditions -  °F | °C
As of 3:54 AM on Sunday 26 Oct 2014 (Local Time) from KSBY Reporting Station
Clear Clear  
Wind Chill: 57°   Ceiling: Unl
Heat Index: 57°   Visibility: 10mi
Dew Point: 49°   Wind: 7mph
Humidity: 74%   Direction: 250°WSW
Pressure: 29.67"   Gusts: NA
Location:  38.29°N, 75.69°W
Report Text: KSBY 260754Z AUTO 25006KT 10SM CLR 14/09 A2967 RMK AO2 SLP047 T01390094
Loading
Personal Weather Stations






























Interactive Weather Map New forecast layout! Learn more

10-Day Weather Forecast

Advertisements
Track Severe Weather on mobile